createdAt,value
2022-08-14T00:02:03.225Z,78.06
2022-08-14T00:04:36.098Z,78.23
2022-08-14T00:07:14.072Z,78.50
2022-08-14T00:10:02.202Z,78.43
2022-08-14T00:12:37.805Z,78.44
2022-08-14T00:15:37.469Z,78.46
2022-08-14T00:18:14.584Z,78.36
2022-08-14T00:20:43.390Z,78.21
2022-08-14T00:23:16.904Z,77.72
2022-08-14T00:25:53.858Z,78.11
2022-08-14T00:28:34.999Z,77.73
2022-08-14T00:31:04.606Z,77.21
2022-08-14T00:33:50.494Z,77.30
2022-08-14T00:36:35.580Z,76.79
2022-08-14T00:39:09.513Z,76.83
2022-08-14T00:41:38.783Z,76.47
2022-08-14T00:44:06.198Z,76.65
2022-08-14T00:46:33.531Z,76.26
2022-08-14T00:49:02.059Z,75.98
2022-08-14T00:51:37.667Z,75.48
2022-08-14T00:54:17.065Z,75.77
2022-08-14T00:56:55.255Z,75.56
2022-08-14T00:59:25.115Z,75.37
2022-08-14T01:01:55.913Z,75.00
2022-08-14T01:04:38.432Z,75.08
2022-08-14T01:07:11.191Z,75.28
2022-08-14T01:09:41.463Z,74.95
2022-08-14T01:12:09.342Z,74.88
2022-08-14T01:14:37.667Z,74.86
2022-08-14T01:17:08.981Z,74.50
2022-08-14T01:19:54.796Z,74.62
2022-08-14T01:22:21.870Z,74.50
2022-08-14T01:24:54.066Z,75.03
2022-08-14T01:27:24.149Z,74.07
2022-08-14T01:30:01.460Z,74.34
2022-08-14T01:32:35.643Z,74.38
2022-08-14T01:35:21.220Z,73.95
2022-08-14T01:37:57.667Z,74.21
2022-08-14T01:40:36.295Z,74.11
2022-08-14T01:43:14.589Z,74.08
2022-08-14T01:45:42.158Z,73.81
2022-08-14T01:48:13.304Z,74.00
2022-08-14T01:50:42.656Z,74.05
2022-08-14T01:53:11.465Z,73.82
2022-08-14T01:55:40.538Z,73.39
2022-08-14T01:58:19.746Z,73.48
2022-08-14T02:00:54.978Z,73.62
2022-08-14T02:03:31.243Z,73.34
2022-08-14T02:06:03.794Z,73.41
2022-08-14T02:08:53.014Z,73.25
2022-08-14T02:11:24.422Z,73.07
2022-08-14T02:13:56.658Z,72.70
2022-08-14T02:16:26.354Z,72.87
2022-08-14T02:18:56.475Z,72.98
2022-08-14T02:21:26.926Z,72.71
2022-08-14T02:23:55.572Z,72.85
2022-08-14T02:26:29.669Z,72.86
2022-08-14T02:29:03.453Z,72.96
2022-08-14T02:31:41.882Z,72.78
2022-08-14T02:34:22.053Z,72.84
2022-08-14T02:37:04.831Z,72.30
2022-08-14T02:39:45.903Z,72.69
2022-08-14T02:42:15.440Z,72.80
2022-08-14T02:44:50.498Z,72.72
2022-08-14T02:47:21.045Z,72.58
2022-08-14T02:49:54.997Z,72.82
2022-08-14T02:52:55.493Z,73.25
2022-08-14T02:55:19.913Z,72.77
2022-08-14T02:57:58.010Z,72.60
2022-08-14T03:00:25.765Z,72.54
2022-08-14T03:02:58.639Z,72.68
2022-08-14T03:05:32.822Z,72.73
2022-08-14T03:08:21.489Z,72.50
2022-08-14T03:10:49.075Z,72.58
2022-08-14T03:13:19.768Z,72.78
2022-08-14T03:15:55.467Z,72.50
2022-08-14T03:18:31.629Z,73.21
2022-08-14T03:21:05.424Z,72.84
2022-08-14T03:23:37.645Z,72.40
2022-08-14T03:26:08.583Z,72.27
2022-08-14T03:28:36.619Z,72.08
2022-08-14T03:31:04.315Z,72.46
2022-08-14T03:33:38.429Z,72.21
2022-08-14T03:37:28.589Z,72.21
2022-08-14T03:39:12.935Z,72.10
2022-08-14T03:41:47.696Z,71.57
2022-08-14T03:45:19.128Z,71.55
2022-08-14T03:47:02.946Z,71.52
2022-08-14T03:49:30.409Z,71.78
2022-08-14T03:52:02.898Z,71.92
2022-08-14T03:54:31.082Z,70.91
2022-08-14T03:57:02.759Z,70.89
2022-08-14T03:59:30.890Z,70.92
2022-08-14T04:02:02.182Z,71.03
2022-08-14T04:04:32.114Z,70.93
2022-08-14T04:07:00.828Z,71.13
2022-08-14T04:09:28.041Z,70.72
2022-08-14T04:11:56.163Z,71.11
2022-08-14T04:14:24.936Z,71.27
2022-08-14T04:16:51.737Z,71.00
2022-08-14T04:19:22.386Z,71.16
2022-08-14T04:22:02.104Z,71.18
2022-08-14T04:24:38.635Z,71.03
2022-08-14T04:27:11.837Z,71.01
2022-08-14T04:29:42.533Z,71.08
2022-08-14T04:32:58.578Z,70.91
2022-08-14T04:34:57.960Z,70.88
2022-08-14T04:37:45.515Z,70.96
2022-08-14T04:40:40.531Z,71.26
2022-08-14T04:43:32.483Z,71.27
2022-08-14T04:46:11.841Z,71.17
2022-08-14T04:48:59.940Z,71.50
2022-08-14T04:51:28.206Z,71.92
2022-08-14T04:53:57.338Z,70.84
2022-08-14T04:56:31.172Z,70.78
2022-08-14T04:59:09.892Z,70.57
2022-08-14T05:01:41.750Z,70.69
2022-08-14T05:04:16.380Z,70.58
2022-08-14T05:06:49.260Z,70.59
2022-08-14T05:09:16.516Z,70.32
2022-08-14T05:11:44.614Z,70.66
2022-08-14T05:14:34.456Z,70.90
2022-08-14T05:17:01.633Z,71.07
2022-08-14T05:19:30.023Z,70.72
2022-08-14T05:22:16.392Z,70.73
2022-08-14T05:24:50.274Z,70.53
2022-08-14T05:27:23.078Z,70.31
2022-08-14T05:29:56.879Z,70.31
2022-08-14T05:32:27.177Z,70.57
2022-08-14T05:34:58.309Z,70.08
2022-08-14T05:37:28.067Z,70.26
2022-08-14T05:39:55.212Z,69.68
2022-08-14T05:42:26.959Z,69.46
2022-08-14T05:44:56.617Z,69.46
2022-08-14T05:47:28.930Z,69.14
2022-08-14T05:50:09.650Z,68.90
2022-08-14T05:52:44.412Z,68.58
2022-08-14T05:55:11.731Z,68.59
2022-08-14T05:58:01.691Z,68.38
2022-08-14T06:00:39.638Z,68.47
2022-08-14T06:03:09.653Z,68.31
2022-08-14T06:05:38.440Z,67.82
2022-08-14T06:08:31.057Z,67.31
2022-08-14T06:11:06.107Z,67.40
2022-08-14T06:13:44.987Z,67.10
2022-08-14T06:16:17.556Z,67.08
2022-08-14T06:18:52.323Z,66.90
2022-08-14T06:21:23.187Z,66.97
2022-08-14T06:23:51.407Z,66.66
2022-08-14T06:26:20.740Z,66.85
2022-08-14T06:28:52.254Z,66.46
2022-08-14T06:31:21.247Z,66.51
2022-08-14T06:35:09.492Z,66.43
2022-08-14T06:36:38.014Z,65.97
2022-08-14T06:39:08.135Z,66.08
2022-08-14T06:41:58.005Z,66.08
2022-08-14T06:44:32.324Z,66.58
2022-08-14T06:47:02.634Z,65.99
2022-08-14T06:49:30.285Z,65.76
2022-08-14T06:51:57.479Z,65.23
2022-08-14T06:54:31.538Z,65.01
2022-08-14T06:56:58.655Z,65.10
2022-08-14T06:59:25.686Z,64.84
2022-08-14T07:02:13.546Z,64.41
2022-08-14T07:04:59.441Z,64.37
2022-08-14T07:07:28.759Z,64.25
2022-08-14T07:09:55.924Z,64.40
2022-08-14T07:12:54.538Z,64.73
2022-08-14T07:15:11.042Z,64.98
2022-08-14T07:17:46.788Z,64.60
2022-08-14T07:20:31.050Z,63.66
2022-08-14T07:23:06.919Z,64.10
2022-08-14T07:25:38.017Z,64.00
2022-08-14T07:28:33.101Z,62.97
2022-08-14T07:31:04.715Z,63.40
2022-08-14T07:33:42.027Z,62.85
2022-08-14T07:36:27.435Z,62.94
2022-08-14T07:39:03.244Z,61.80
2022-08-14T07:41:33.610Z,62.05
2022-08-14T07:44:22.590Z,61.97
2022-08-14T07:46:50.161Z,61.07
2022-08-14T07:49:17.957Z,60.13
2022-08-14T07:51:45.916Z,59.62
2022-08-14T07:54:23.480Z,59.87
2022-08-14T07:57:12.312Z,58.80
2022-08-14T07:59:43.758Z,58.69
2022-08-14T08:02:19.439Z,58.55
2022-08-14T08:04:54.571Z,58.37
2022-08-14T08:07:29.921Z,58.00
2022-08-14T08:10:01.254Z,58.11
2022-08-14T08:12:30.880Z,58.06
2022-08-14T08:15:05.791Z,58.08
2022-08-14T08:17:42.805Z,58.40
2022-08-14T08:20:27.108Z,58.53
2022-08-14T08:23:05.871Z,57.81
2022-08-14T08:25:41.160Z,58.38
2022-08-14T08:28:22.424Z,57.63
2022-08-14T08:30:56.487Z,57.00
2022-08-14T08:33:26.331Z,57.57
2022-08-14T08:36:01.509Z,56.63
2022-08-14T08:39:17.102Z,56.74
2022-08-14T08:41:15.601Z,55.90
2022-08-14T08:43:46.280Z,56.22
2022-08-14T08:46:23.847Z,55.90
2022-08-14T08:51:25.322Z,55.30
2022-08-14T08:54:02.519Z,54.77
2022-08-14T08:56:48.937Z,54.82
2022-08-14T08:59:27.193Z,55.74
2022-08-14T09:02:00.615Z,54.85
2022-08-14T09:04:45.736Z,55.00
2022-08-14T09:07:27.006Z,55.50
2022-08-14T09:09:59.172Z,55.13
2022-08-14T09:12:32.213Z,54.41
2022-08-14T09:15:11.403Z,55.02
2022-08-14T09:17:41.224Z,55.55
2022-08-14T09:20:11.648Z,55.49
2022-08-14T09:22:42.693Z,55.42
2022-08-14T09:25:17.335Z,55.46
2022-08-14T09:27:47.165Z,55.37
2022-08-14T09:30:33.126Z,54.99
2022-08-14T09:33:11.076Z,54.18
2022-08-14T09:35:58.164Z,54.19
2022-08-14T09:38:43.988Z,54.76
2022-08-14T09:42:21.621Z,54.50
2022-08-14T09:44:46.118Z,54.97
2022-08-14T09:47:16.975Z,54.92
2022-08-14T09:49:47.165Z,54.19
2022-08-14T09:52:32.688Z,53.35
2022-08-14T09:55:02.815Z,53.38
2022-08-14T09:57:34.083Z,54.67
2022-08-14T10:00:30.129Z,53.31
2022-08-14T10:03:03.576Z,53.72
2022-08-14T10:05:35.098Z,52.95
2022-08-14T10:08:25.474Z,52.49
2022-08-14T10:10:57.347Z,53.33
2022-08-14T10:13:30.505Z,52.98
2022-08-14T10:16:25.606Z,53.35
2022-08-14T10:19:15.887Z,52.38
2022-08-14T10:23:11.070Z,52.89
2022-08-14T10:24:46.236Z,51.32
2022-08-14T10:27:23.363Z,51.05
2022-08-14T10:29:55.789Z,50.98
2022-08-14T10:32:28.448Z,51.14
2022-08-14T10:35:10.933Z,50.90
2022-08-14T10:37:52.244Z,51.35
2022-08-14T10:40:38.408Z,51.06
2022-08-14T10:43:23.231Z,51.44
2022-08-14T10:46:03.266Z,51.80
2022-08-14T10:49:03.893Z,51.25
2022-08-14T10:51:36.355Z,51.63
2022-08-14T10:54:16.275Z,51.29
2022-08-14T10:57:18.794Z,51.66
2022-08-14T10:59:49.995Z,52.01
2022-08-14T11:02:53.908Z,51.66
2022-08-14T11:05:23.565Z,51.87
2022-08-14T11:07:55.436Z,51.28
2022-08-14T11:10:39.227Z,51.08
2022-08-14T11:13:10.646Z,51.17
2022-08-14T11:15:37.456Z,51.12
2022-08-14T11:18:05.339Z,49.15
2022-08-14T11:20:33.105Z,49.74
2022-08-14T11:23:01.466Z,50.18
2022-08-14T11:25:43.666Z,50.11
2022-08-14T11:28:19.288Z,49.89
2022-08-14T11:30:54.380Z,51.65
2022-08-14T11:33:29.154Z,50.53
2022-08-14T11:35:59.393Z,50.77
2022-08-14T11:38:29.201Z,50.46
2022-08-14T11:41:00.259Z,50.14
2022-08-14T11:43:29.602Z,50.48
2022-08-14T11:45:57.837Z,50.46
2022-08-14T11:49:03.083Z,50.71
2022-08-14T11:51:26.151Z,50.47
2022-08-14T11:54:06.367Z,50.73
2022-08-14T11:56:43.874Z,51.63
2022-08-14T11:59:19.777Z,51.04
2022-08-14T12:01:54.941Z,51.51
2022-08-14T12:04:33.423Z,51.49
2022-08-14T12:07:01.614Z,51.18
2022-08-14T12:09:33.939Z,50.87
2022-08-14T12:12:02.599Z,50.37
2022-08-14T12:14:35.463Z,50.40
2022-08-14T12:17:09.397Z,50.60
2022-08-14T12:19:45.537Z,51.47
2022-08-14T12:22:12.370Z,50.53
2022-08-14T12:24:53.005Z,49.79
2022-08-14T12:27:25.141Z,49.67
2022-08-14T12:29:53.979Z,49.44
2022-08-14T12:32:21.017Z,49.41
2022-08-14T12:34:54.956Z,49.31
2022-08-14T12:37:30.418Z,49.38
2022-08-14T12:40:15.651Z,49.61
2022-08-14T12:42:53.630Z,50.11
2022-08-14T12:45:31.502Z,50.24
2022-08-14T12:48:21.043Z,50.41
2022-08-14T12:50:52.249Z,49.74
2022-08-14T12:53:21.979Z,49.95
2022-08-14T12:56:21.338Z,50.06
2022-08-14T12:58:55.533Z,49.56
2022-08-14T13:01:28.831Z,49.33
2022-08-14T13:04:14.053Z,50.58
2022-08-14T13:06:44.772Z,50.65
2022-08-14T13:09:17.836Z,50.69
2022-08-14T13:11:58.444Z,49.89
2022-08-14T13:14:38.499Z,49.85
2022-08-14T13:17:05.586Z,50.56
2022-08-14T13:19:35.624Z,50.97
2022-08-14T13:22:09.858Z,50.45
2022-08-14T13:24:48.099Z,50.91
2022-08-14T13:27:18.697Z,51.52
2022-08-14T13:29:47.433Z,51.50
2022-08-14T13:32:15.324Z,51.89
2022-08-14T13:34:45.454Z,51.93
2022-08-14T13:37:16.969Z,52.19
2022-08-14T13:39:56.388Z,52.76
2022-08-14T13:42:30.850Z,53.57
2022-08-14T13:45:02.383Z,54.16
2022-08-14T13:47:33.120Z,54.21
2022-08-14T13:50:02.659Z,54.58
2022-08-14T13:52:53.393Z,54.13
2022-08-14T13:55:25.702Z,54.75
2022-08-14T13:58:03.301Z,54.98
2022-08-14T14:00:53.099Z,55.52
2022-08-14T14:03:24.291Z,55.62
2022-08-14T14:05:54.901Z,55.69
2022-08-14T14:08:46.813Z,55.95
2022-08-14T14:11:15.669Z,56.01
2022-08-14T14:13:45.693Z,56.28
2022-08-14T14:16:15.298Z,56.76
2022-08-14T14:18:56.009Z,56.33
2022-08-14T14:21:26.507Z,55.77
2022-08-14T14:23:57.010Z,56.18
2022-08-14T14:26:24.713Z,55.64
2022-08-14T14:28:57.031Z,56.20
2022-08-14T14:31:29.921Z,56.79
2022-08-14T14:34:29.167Z,57.49
2022-08-14T14:37:04.857Z,57.65
2022-08-14T14:39:37.618Z,58.08
2022-08-14T14:42:06.603Z,58.61
2022-08-14T14:44:40.290Z,57.59
2022-08-14T14:47:15.563Z,57.17
2022-08-14T14:49:54.906Z,57.05
2022-08-14T14:52:26.937Z,56.67
2022-08-14T14:54:57.170Z,56.40
2022-08-14T14:57:35.759Z,56.46
2022-08-14T15:00:06.942Z,56.46
2022-08-14T15:02:39.189Z,56.52
2022-08-14T15:05:08.078Z,57.00
2022-08-14T15:07:36.565Z,57.18
2022-08-14T15:10:27.637Z,57.20
2022-08-14T15:12:57.908Z,57.34
2022-08-14T15:15:27.670Z,57.19
2022-08-14T15:17:55.139Z,57.64
2022-08-14T15:20:30.669Z,57.93
2022-08-14T15:23:12.118Z,57.59
2022-08-14T15:25:45.318Z,57.97
2022-08-14T15:28:21.788Z,57.90
2022-08-14T15:30:51.192Z,57.29
2022-08-14T15:34:01.016Z,57.20
2022-08-14T15:36:35.262Z,56.29
2022-08-14T15:39:03.526Z,56.14
2022-08-14T15:41:33.708Z,56.00
2022-08-14T15:44:25.564Z,55.97
2022-08-14T15:46:54.282Z,56.16
2022-08-14T15:49:24.413Z,56.76
2022-08-14T15:51:59.304Z,56.94
2022-08-14T15:54:31.171Z,57.12
2022-08-14T15:57:00.770Z,57.38
2022-08-14T15:59:48.092Z,57.49
2022-08-14T16:02:16.722Z,57.13
2022-08-14T16:04:46.104Z,56.71
2022-08-14T16:07:18.788Z,57.08
2022-08-14T16:10:01.333Z,57.13
2022-08-14T16:12:41.639Z,57.03
2022-08-14T16:15:16.872Z,56.94
2022-08-14T16:17:44.901Z,57.20
2022-08-14T16:20:12.690Z,57.45
2022-08-14T16:23:05.601Z,57.75
2022-08-14T16:25:42.786Z,57.92
2022-08-14T16:28:10.405Z,58.34
2022-08-14T16:30:54.445Z,58.20
2022-08-14T16:33:56.405Z,58.69
2022-08-14T16:36:26.545Z,58.92
2022-08-14T16:39:00.252Z,59.15
2022-08-14T16:41:27.992Z,59.38
2022-08-14T16:44:02.433Z,59.68
2022-08-14T16:46:42.918Z,59.93
2022-08-14T16:49:14.549Z,60.14
2022-08-14T16:51:43.594Z,60.54
2022-08-14T16:54:34.430Z,60.80
2022-08-14T16:57:34.449Z,61.10
2022-08-14T17:00:07.470Z,61.06
2022-08-14T17:02:46.646Z,61.95
2022-08-14T17:05:26.940Z,62.32
2022-08-14T17:08:28.302Z,62.49
2022-08-14T17:10:51.748Z,62.74
2022-08-14T17:13:58.267Z,63.23
2022-08-14T17:16:24.260Z,63.53
2022-08-14T17:19:03.824Z,63.83
2022-08-14T17:21:38.131Z,64.12
2022-08-14T17:24:55.922Z,64.36
2022-08-14T17:27:00.130Z,64.71
2022-08-14T17:29:33.794Z,65.08
2022-08-14T17:32:22.384Z,65.42
2022-08-14T17:34:55.451Z,65.51
2022-08-14T17:37:35.560Z,65.94
2022-08-14T17:40:16.680Z,65.99
2022-08-14T17:42:51.354Z,66.18
2022-08-14T17:45:41.084Z,66.58
2022-08-14T17:49:10.630Z,66.92
2022-08-14T17:51:14.532Z,66.82
2022-08-14T17:53:52.591Z,67.36
2022-08-14T17:56:21.112Z,67.78
2022-08-14T17:58:49.579Z,68.05
2022-08-14T18:01:23.627Z,68.28
2022-08-14T18:03:54.058Z,68.51
2022-08-14T18:06:40.164Z,68.72
2022-08-14T18:09:24.698Z,68.97
2022-08-14T18:11:58.196Z,69.06
2022-08-14T18:14:32.528Z,69.36
2022-08-14T18:17:16.065Z,69.37
2022-08-14T18:19:45.018Z,69.78
2022-08-14T18:22:31.287Z,70.01
2022-08-14T18:25:02.387Z,70.24
2022-08-14T18:27:38.726Z,70.42
2022-08-14T18:30:36.482Z,70.58
2022-08-14T18:32:59.196Z,70.79
2022-08-14T18:35:45.915Z,71.01
2022-08-14T18:38:52.418Z,69.50
2022-08-14T18:41:36.258Z,71.06
2022-08-14T18:44:10.138Z,71.29
2022-08-14T18:47:10.244Z,71.68
2022-08-14T18:49:55.079Z,71.68
2022-08-14T18:52:39.224Z,71.91
2022-08-14T18:55:18.291Z,72.32
2022-08-14T18:57:57.642Z,72.27
2022-08-14T19:00:32.911Z,72.21
2022-08-14T19:03:03.840Z,72.51
2022-08-14T19:05:47.405Z,72.64
2022-08-14T19:08:26.293Z,72.44
2022-08-14T19:10:57.154Z,72.82
2022-08-14T19:13:48.438Z,72.97
2022-08-14T19:16:26.113Z,72.96
2022-08-14T19:19:00.443Z,72.93
2022-08-14T19:21:32.334Z,73.17
2022-08-14T19:24:27.139Z,73.15
2022-08-14T19:27:19.673Z,73.16
2022-08-14T19:29:51.241Z,73.29
2022-08-14T19:32:36.982Z,73.70
2022-08-14T19:35:18.343Z,73.55
2022-08-14T19:37:57.033Z,73.92
2022-08-14T19:40:31.630Z,73.82
2022-08-14T19:43:02.001Z,74.03
2022-08-14T19:45:33.795Z,74.21
2022-08-14T19:48:02.377Z,74.44
2022-08-14T19:50:40.286Z,74.49
2022-08-14T19:53:16.757Z,74.50
2022-08-14T19:55:56.946Z,74.79
2022-08-14T19:58:54.546Z,74.93
2022-08-14T20:01:27.060Z,74.80
2022-08-14T20:04:45.434Z,75.17
2022-08-14T20:07:04.115Z,75.25
2022-08-14T20:11:04.104Z,75.40
2022-08-14T20:12:28.865Z,75.55
2022-08-14T20:15:15.390Z,75.57
2022-08-14T20:17:52.958Z,75.72
2022-08-14T20:20:32.449Z,75.83
2022-08-14T20:23:11.260Z,76.11
2022-08-14T20:25:45.702Z,76.00
2022-08-14T20:41:51.224Z,74.47
2022-08-14T20:44:42.331Z,74.47
2022-08-14T20:47:16.217Z,75.32
2022-08-14T20:49:43.993Z,75.60
2022-08-14T20:52:19.939Z,75.59
2022-08-14T20:54:51.415Z,75.94
2022-08-14T20:57:19.384Z,76.14
2022-08-14T20:59:57.224Z,76.33
2022-08-14T21:02:49.682Z,76.43
2022-08-14T21:05:20.583Z,76.58
2022-08-14T21:07:51.433Z,76.72
2022-08-14T21:10:35.604Z,76.75
2022-08-14T21:13:25.395Z,76.92
2022-08-14T21:15:57.621Z,77.10
2022-08-14T21:18:31.722Z,77.30
2022-08-14T21:21:06.823Z,77.37
2022-08-14T21:23:54.492Z,77.45
2022-08-14T21:26:51.284Z,77.61
2022-08-14T21:29:14.274Z,77.60
2022-08-14T21:31:42.308Z,77.56
2022-08-14T21:34:31.703Z,77.66
2022-08-14T21:37:09.960Z,77.80
2022-08-14T21:39:37.743Z,77.58
2022-08-14T21:42:06.264Z,77.71
2022-08-14T21:44:42.840Z,77.90
2022-08-14T21:47:13.291Z,77.75
2022-08-14T21:49:46.379Z,77.78
2022-08-14T21:52:50.715Z,77.86
2022-08-14T21:55:10.451Z,77.78
2022-08-14T21:58:46.116Z,78.08
2022-08-14T22:00:36.544Z,77.85
2022-08-14T22:03:10.014Z,77.90
2022-08-14T22:05:39.698Z,77.83
2022-08-14T22:08:12.312Z,77.92
2022-08-14T22:10:42.493Z,77.99
2022-08-14T22:13:12.505Z,78.03
2022-08-14T22:15:43.915Z,78.04
2022-08-14T22:18:20.158Z,78.07
2022-08-14T22:20:53.355Z,78.09
2022-08-14T22:23:23.888Z,78.28
2022-08-14T22:25:52.297Z,78.35
2022-08-14T22:28:27.297Z,78.44
2022-08-14T22:31:09.946Z,78.52
2022-08-14T22:33:39.274Z,78.54
2022-08-14T22:36:26.488Z,78.68
2022-08-14T22:38:54.449Z,78.62
2022-08-14T22:41:27.706Z,78.78
2022-08-14T22:44:03.183Z,78.81
2022-08-14T22:46:30.727Z,79.04
2022-08-14T22:48:57.731Z,78.98
2022-08-14T22:51:27.704Z,79.00
2022-08-14T22:53:56.794Z,78.93
2022-08-14T22:56:29.284Z,79.02
2022-08-14T22:59:03.478Z,79.11
2022-08-14T23:02:05.299Z,79.07
2022-08-14T23:04:53.793Z,79.10
2022-08-14T23:07:23.623Z,79.17
2022-08-14T23:09:57.016Z,79.13
2022-08-14T23:12:27.835Z,79.17
2022-08-14T23:14:56.836Z,79.39
2022-08-14T23:17:23.957Z,79.08
2022-08-14T23:19:56.514Z,79.41
2022-08-14T23:22:26.210Z,79.42
2022-08-14T23:24:57.804Z,79.23
2022-08-14T23:27:31.633Z,79.40
2022-08-14T23:29:58.887Z,79.55
2022-08-14T23:32:30.197Z,79.63
2022-08-14T23:35:00.934Z,79.79
2022-08-14T23:37:29.107Z,79.83
2022-08-14T23:39:56.225Z,80.03
2022-08-14T23:42:23.386Z,80.06
2022-08-14T23:45:08.486Z,80.19
2022-08-14T23:47:52.151Z,80.11
2022-08-14T23:50:34.604Z,80.12
2022-08-14T23:53:28.324Z,80.25
2022-08-14T23:56:06.089Z,80.05
2022-08-14T23:58:36.853Z,80.16
